sensor_id;sensor_type;location;lat;lon;timestamp;P1;durP1;ratioP1;P2;durP2;ratioP2
18651;SDS011;9455;54.302;10.124;2022-12-07T00:01:35;9.07;;;5.67;;
18651;SDS011;9455;54.302;10.124;2022-12-07T00:04:06;8.67;;;5.80;;
18651;SDS011;9455;54.302;10.124;2022-12-07T00:06:35;8.90;;;6.13;;
18651;SDS011;9455;54.302;10.124;2022-12-07T00:09:03;10.70;;;6.40;;
18651;SDS011;9455;54.302;10.124;2022-12-07T00:11:30;12.27;;;6.40;;
18651;SDS011;9455;54.302;10.124;2022-12-07T00:13:58;13.30;;;6.40;;
18651;SDS011;9455;54.302;10.124;2022-12-07T00:16:28;9.03;;;6.33;;
18651;SDS011;9455;54.302;10.124;2022-12-07T00:18:56;11.43;;;6.73;;
18651;SDS011;9455;54.302;10.124;2022-12-07T00:21:26;17.07;;;6.93;;
18651;SDS011;9455;54.302;10.124;2022-12-07T00:23:54;10.53;;;6.43;;
18651;SDS011;9455;54.302;10.124;2022-12-07T00:26:22;11.63;;;6.67;;
18651;SDS011;9455;54.302;10.124;2022-12-07T00:28:51;12.10;;;6.43;;
18651;SDS011;9455;54.302;10.124;2022-12-07T00:31:19;10.33;;;6.63;;
18651;SDS011;9455;54.302;10.124;2022-12-07T00:33:47;13.10;;;7.07;;
18651;SDS011;9455;54.302;10.124;2022-12-07T00:36:15;12.30;;;7.10;;
18651;SDS011;9455;54.302;10.124;2022-12-07T00:38:45;16.70;;;7.03;;
18651;SDS011;9455;54.302;10.124;2022-12-07T00:41:13;13.90;;;7.60;;
18651;SDS011;9455;54.302;10.124;2022-12-07T00:43:41;11.33;;;6.83;;
18651;SDS011;9455;54.302;10.124;2022-12-07T00:46:09;11.97;;;6.97;;
18651;SDS011;9455;54.302;10.124;2022-12-07T00:48:37;18.97;;;6.83;;
18651;SDS011;9455;54.302;10.124;2022-12-07T00:51:04;10.93;;;6.03;;
18651;SDS011;9455;54.302;10.124;2022-12-07T00:53:33;12.20;;;6.33;;
18651;SDS011;9455;54.302;10.124;2022-12-07T00:56:05;13.17;;;6.43;;
18651;SDS011;9455;54.302;10.124;2022-12-07T00:58:32;10.13;;;6.07;;
18651;SDS011;9455;54.302;10.124;2022-12-07T01:00:59;9.13;;;6.07;;
18651;SDS011;9455;54.302;10.124;2022-12-07T01:03:27;12.27;;;6.73;;
18651;SDS011;9455;54.302;10.124;2022-12-07T01:05:54;10.27;;;6.50;;
18651;SDS011;9455;54.302;10.124;2022-12-07T01:08:22;11.63;;;6.20;;
18651;SDS011;9455;54.302;10.124;2022-12-07T01:10:56;11.90;;;6.33;;
18651;SDS011;9455;54.302;10.124;2022-12-07T01:13:26;10.67;;;6.17;;
18651;SDS011;9455;54.302;10.124;2022-12-07T01:15:56;11.90;;;6.67;;
18651;SDS011;9455;54.302;10.124;2022-12-07T01:18:25;12.67;;;6.53;;
18651;SDS011;9455;54.302;10.124;2022-12-07T01:20:58;9.30;;;5.50;;
18651;SDS011;9455;54.302;10.124;2022-12-07T01:23:26;8.93;;;6.20;;
18651;SDS011;9455;54.302;10.124;2022-12-07T01:25:56;18.23;;;8.33;;
18651;SDS011;9455;54.302;10.124;2022-12-07T01:28:23;13.20;;;6.00;;
18651;SDS011;9455;54.302;10.124;2022-12-07T01:30:58;15.90;;;5.90;;
18651;SDS011;9455;54.302;10.124;2022-12-07T01:33:26;8.53;;;5.27;;
18651;SDS011;9455;54.302;10.124;2022-12-07T01:35:54;8.03;;;4.67;;
18651;SDS011;9455;54.302;10.124;2022-12-07T01:38:26;5.23;;;4.33;;
18651;SDS011;9455;54.302;10.124;2022-12-07T01:40:55;9.10;;;4.30;;
18651;SDS011;9455;54.302;10.124;2022-12-07T01:43:23;15.27;;;4.30;;
18651;SDS011;9455;54.302;10.124;2022-12-07T01:45:52;8.77;;;4.57;;
18651;SDS011;9455;54.302;10.124;2022-12-07T01:48:21;10.40;;;4.53;;
18651;SDS011;9455;54.302;10.124;2022-12-07T01:50:52;5.60;;;3.67;;
18651;SDS011;9455;54.302;10.124;2022-12-07T01:53:21;4.87;;;4.07;;
18651;SDS011;9455;54.302;10.124;2022-12-07T01:55:51;6.87;;;4.10;;
18651;SDS011;9455;54.302;10.124;2022-12-07T01:58:19;9.83;;;3.50;;
18651;SDS011;9455;54.302;10.124;2022-12-07T02:00:47;7.87;;;3.80;;
18651;SDS011;9455;54.302;10.124;2022-12-07T02:03:15;6.70;;;3.77;;
18651;SDS011;9455;54.302;10.124;2022-12-07T02:05:46;6.23;;;3.80;;
18651;SDS011;9455;54.302;10.124;2022-12-07T02:08:14;7.47;;;4.30;;
18651;SDS011;9455;54.302;10.124;2022-12-07T02:10:41;10.70;;;4.37;;
18651;SDS011;9455;54.302;10.124;2022-12-07T02:13:09;9.07;;;4.50;;
18651;SDS011;9455;54.302;10.124;2022-12-07T02:15:41;8.27;;;4.67;;
18651;SDS011;9455;54.302;10.124;2022-12-07T02:18:18;9.60;;;5.90;;
18651;SDS011;9455;54.302;10.124;2022-12-07T02:20:53;10.27;;;5.73;;
18651;SDS011;9455;54.302;10.124;2022-12-07T02:23:38;14.67;;;6.27;;
18651;SDS011;9455;54.302;10.124;2022-12-07T02:26:19;18.73;;;7.10;;
18651;SDS011;9455;54.302;10.124;2022-12-07T02:29:16;11.10;;;6.13;;
18651;SDS011;9455;54.302;10.124;2022-12-07T02:31:50;13.57;;;6.90;;
18651;SDS011;9455;54.302;10.124;2022-12-07T02:34:32;18.27;;;8.30;;
18651;SDS011;9455;54.302;10.124;2022-12-07T02:37:08;14.90;;;8.03;;
18651;SDS011;9455;54.302;10.124;2022-12-07T02:39:41;17.43;;;7.40;;
18651;SDS011;9455;54.302;10.124;2022-12-07T02:42:14;17.10;;;8.17;;
18651;SDS011;9455;54.302;10.124;2022-12-07T02:44:44;15.67;;;8.10;;
18651;SDS011;9455;54.302;10.124;2022-12-07T02:47:13;13.60;;;7.53;;
18651;SDS011;9455;54.302;10.124;2022-12-07T02:49:43;12.23;;;8.10;;
18651;SDS011;9455;54.302;10.124;2022-12-07T02:52:10;17.47;;;8.37;;
18651;SDS011;9455;54.302;10.124;2022-12-07T02:54:37;17.83;;;7.97;;
18651;SDS011;9455;54.302;10.124;2022-12-07T02:57:06;16.50;;;8.77;;
18651;SDS011;9455;54.302;10.124;2022-12-07T02:59:50;14.33;;;8.17;;
18651;SDS011;9455;54.302;10.124;2022-12-07T03:02:28;15.30;;;7.53;;
18651;SDS011;9455;54.302;10.124;2022-12-07T03:05:13;15.90;;;8.40;;
18651;SDS011;9455;54.302;10.124;2022-12-07T03:07:51;15.70;;;7.73;;
18651;SDS011;9455;54.302;10.124;2022-12-07T03:10:27;14.70;;;7.53;;
18651;SDS011;9455;54.302;10.124;2022-12-07T03:13:02;13.43;;;7.20;;
18651;SDS011;9455;54.302;10.124;2022-12-07T03:15:35;14.53;;;7.47;;
18651;SDS011;9455;54.302;10.124;2022-12-07T03:18:09;14.07;;;7.67;;
18651;SDS011;9455;54.302;10.124;2022-12-07T03:20:39;12.97;;;7.13;;
18651;SDS011;9455;54.302;10.124;2022-12-07T03:23:10;14.13;;;7.07;;
18651;SDS011;9455;54.302;10.124;2022-12-07T03:25:38;16.87;;;7.40;;
18651;SDS011;9455;54.302;10.124;2022-12-07T03:28:08;12.97;;;7.07;;
18651;SDS011;9455;54.302;10.124;2022-12-07T03:30:39;13.40;;;7.70;;
18651;SDS011;9455;54.302;10.124;2022-12-07T03:33:11;12.97;;;7.20;;
18651;SDS011;9455;54.302;10.124;2022-12-07T03:35:45;14.63;;;7.27;;
18651;SDS011;9455;54.302;10.124;2022-12-07T03:38:16;13.77;;;7.10;;
18651;SDS011;9455;54.302;10.124;2022-12-07T03:40:47;13.67;;;7.70;;
18651;SDS011;9455;54.302;10.124;2022-12-07T03:43:21;13.20;;;7.57;;
18651;SDS011;9455;54.302;10.124;2022-12-07T03:45:51;12.57;;;6.73;;
18651;SDS011;9455;54.302;10.124;2022-12-07T03:48:26;12.67;;;7.23;;
18651;SDS011;9455;54.302;10.124;2022-12-07T03:51:00;12.23;;;6.57;;
18651;SDS011;9455;54.302;10.124;2022-12-07T03:53:35;12.87;;;7.13;;
18651;SDS011;9455;54.302;10.124;2022-12-07T03:56:06;11.67;;;7.27;;
18651;SDS011;9455;54.302;10.124;2022-12-07T03:58:35;11.10;;;6.70;;
18651;SDS011;9455;54.302;10.124;2022-12-07T04:01:04;13.13;;;7.20;;
18651;SDS011;9455;54.302;10.124;2022-12-07T04:03:30;12.70;;;6.40;;
18651;SDS011;9455;54.302;10.124;2022-12-07T04:05:57;10.67;;;5.77;;
18651;SDS011;9455;54.302;10.124;2022-12-07T04:08:24;11.97;;;7.00;;
18651;SDS011;9455;54.302;10.124;2022-12-07T04:10:50;11.77;;;6.90;;
18651;SDS011;9455;54.302;10.124;2022-12-07T04:13:17;16.57;;;7.40;;
18651;SDS011;9455;54.302;10.124;2022-12-07T04:15:44;12.47;;;7.57;;
18651;SDS011;9455;54.302;10.124;2022-12-07T04:18:12;11.87;;;6.83;;
18651;SDS011;9455;54.302;10.124;2022-12-07T04:20:38;14.60;;;6.90;;
18651;SDS011;9455;54.302;10.124;2022-12-07T04:23:06;16.17;;;7.30;;
18651;SDS011;9455;54.302;10.124;2022-12-07T04:25:32;17.03;;;7.77;;
18651;SDS011;9455;54.302;10.124;2022-12-07T04:27:59;12.47;;;7.30;;
18651;SDS011;9455;54.302;10.124;2022-12-07T04:30:26;14.17;;;7.03;;
18651;SDS011;9455;54.302;10.124;2022-12-07T04:32:52;16.67;;;8.33;;
18651;SDS011;9455;54.302;10.124;2022-12-07T04:35:20;17.53;;;8.40;;
18651;SDS011;9455;54.302;10.124;2022-12-07T04:37:47;15.37;;;8.73;;
18651;SDS011;9455;54.302;10.124;2022-12-07T04:40:13;13.50;;;6.47;;
18651;SDS011;9455;54.302;10.124;2022-12-07T04:42:40;14.30;;;7.50;;
18651;SDS011;9455;54.302;10.124;2022-12-07T04:45:07;12.97;;;7.60;;
18651;SDS011;9455;54.302;10.124;2022-12-07T04:47:34;17.37;;;7.77;;
18651;SDS011;9455;54.302;10.124;2022-12-07T04:50:01;15.07;;;8.33;;
18651;SDS011;9455;54.302;10.124;2022-12-07T04:52:30;16.23;;;7.87;;
18651;SDS011;9455;54.302;10.124;2022-12-07T04:54:56;18.03;;;7.97;;
18651;SDS011;9455;54.302;10.124;2022-12-07T04:57:23;18.17;;;7.40;;
18651;SDS011;9455;54.302;10.124;2022-12-07T04:59:49;13.50;;;7.77;;
18651;SDS011;9455;54.302;10.124;2022-12-07T05:02:16;18.10;;;9.03;;
18651;SDS011;9455;54.302;10.124;2022-12-07T05:04:43;17.90;;;9.40;;
18651;SDS011;9455;54.302;10.124;2022-12-07T05:07:09;17.70;;;8.47;;
18651;SDS011;9455;54.302;10.124;2022-12-07T05:09:37;22.93;;;9.97;;
18651;SDS011;9455;54.302;10.124;2022-12-07T05:12:04;18.03;;;8.63;;
18651;SDS011;9455;54.302;10.124;2022-12-07T05:14:30;18.70;;;8.37;;
18651;SDS011;9455;54.302;10.124;2022-12-07T05:16:57;17.40;;;7.87;;
18651;SDS011;9455;54.302;10.124;2022-12-07T05:19:24;15.23;;;8.27;;
18651;SDS011;9455;54.302;10.124;2022-12-07T05:21:51;16.97;;;7.93;;
18651;SDS011;9455;54.302;10.124;2022-12-07T05:24:18;16.33;;;8.03;;
18651;SDS011;9455;54.302;10.124;2022-12-07T05:26:46;16.00;;;7.07;;
18651;SDS011;9455;54.302;10.124;2022-12-07T05:29:13;13.17;;;7.33;;
18651;SDS011;9455;54.302;10.124;2022-12-07T05:31:41;16.53;;;8.30;;
18651;SDS011;9455;54.302;10.124;2022-12-07T05:34:09;12.57;;;7.10;;
18651;SDS011;9455;54.302;10.124;2022-12-07T05:36:36;12.20;;;6.87;;
18651;SDS011;9455;54.302;10.124;2022-12-07T05:39:02;14.73;;;7.77;;
18651;SDS011;9455;54.302;10.124;2022-12-07T05:41:29;13.53;;;6.70;;
18651;SDS011;9455;54.302;10.124;2022-12-07T05:44:15;14.63;;;7.67;;
18651;SDS011;9455;54.302;10.124;2022-12-07T05:46:41;13.93;;;7.97;;
18651;SDS011;9455;54.302;10.124;2022-12-07T05:49:08;11.53;;;6.60;;
18651;SDS011;9455;54.302;10.124;2022-12-07T05:51:35;12.57;;;6.27;;
18651;SDS011;9455;54.302;10.124;2022-12-07T05:54:01;12.13;;;6.80;;
18651;SDS011;9455;54.302;10.124;2022-12-07T05:56:28;12.27;;;6.60;;
18651;SDS011;9455;54.302;10.124;2022-12-07T05:58:55;16.53;;;6.93;;
18651;SDS011;9455;54.302;10.124;2022-12-07T06:01:40;12.40;;;6.63;;
18651;SDS011;9455;54.302;10.124;2022-12-07T06:04:07;12.17;;;6.97;;
18651;SDS011;9455;54.302;10.124;2022-12-07T06:06:34;9.80;;;5.93;;
18651;SDS011;9455;54.302;10.124;2022-12-07T06:09:00;15.40;;;7.43;;
18651;SDS011;9455;54.302;10.124;2022-12-07T06:11:27;17.37;;;6.87;;
18651;SDS011;9455;54.302;10.124;2022-12-07T06:14:13;15.67;;;7.20;;
18651;SDS011;9455;54.302;10.124;2022-12-07T06:16:42;13.40;;;6.73;;
18651;SDS011;9455;54.302;10.124;2022-12-07T06:19:08;11.53;;;6.30;;
18651;SDS011;9455;54.302;10.124;2022-12-07T06:21:35;13.60;;;6.40;;
18651;SDS011;9455;54.302;10.124;2022-12-07T06:24:02;9.90;;;5.90;;
18651;SDS011;9455;54.302;10.124;2022-12-07T06:26:29;11.83;;;6.43;;
18651;SDS011;9455;54.302;10.124;2022-12-07T06:28:55;12.03;;;6.27;;
18651;SDS011;9455;54.302;10.124;2022-12-07T06:31:22;9.20;;;5.53;;
18651;SDS011;9455;54.302;10.124;2022-12-07T06:33:50;8.70;;;6.10;;
18651;SDS011;9455;54.302;10.124;2022-12-07T06:36:17;11.73;;;5.63;;
18651;SDS011;9455;54.302;10.124;2022-12-07T06:38:43;11.83;;;6.10;;
18651;SDS011;9455;54.302;10.124;2022-12-07T06:41:10;11.00;;;5.97;;
18651;SDS011;9455;54.302;10.124;2022-12-07T06:43:36;10.33;;;5.80;;
18651;SDS011;9455;54.302;10.124;2022-12-07T06:46:03;13.73;;;6.07;;
18651;SDS011;9455;54.302;10.124;2022-12-07T06:48:30;10.43;;;6.10;;
18651;SDS011;9455;54.302;10.124;2022-12-07T06:50:58;16.43;;;7.50;;
18651;SDS011;9455;54.302;10.124;2022-12-07T06:53:25;15.50;;;6.20;;
18651;SDS011;9455;54.302;10.124;2022-12-07T06:55:51;12.40;;;6.50;;
18651;SDS011;9455;54.302;10.124;2022-12-07T06:58:18;14.13;;;6.27;;
18651;SDS011;9455;54.302;10.124;2022-12-07T07:00:45;11.30;;;6.03;;
18651;SDS011;9455;54.302;10.124;2022-12-07T07:03:11;18.20;;;6.90;;
18651;SDS011;9455;54.302;10.124;2022-12-07T07:05:38;14.83;;;6.30;;
18651;SDS011;9455;54.302;10.124;2022-12-07T07:08:06;12.53;;;5.80;;
18651;SDS011;9455;54.302;10.124;2022-12-07T07:10:33;11.30;;;5.77;;
18651;SDS011;9455;54.302;10.124;2022-12-07T07:13:00;9.63;;;5.50;;
18651;SDS011;9455;54.302;10.124;2022-12-07T07:15:26;9.40;;;4.97;;
18651;SDS011;9455;54.302;10.124;2022-12-07T07:17:53;8.27;;;5.37;;
18651;SDS011;9455;54.302;10.124;2022-12-07T07:20:19;10.17;;;5.50;;
18651;SDS011;9455;54.302;10.124;2022-12-07T07:22:47;8.07;;;4.97;;
18651;SDS011;9455;54.302;10.124;2022-12-07T07:25:15;13.17;;;4.93;;
18651;SDS011;9455;54.302;10.124;2022-12-07T07:27:42;9.80;;;5.20;;
18651;SDS011;9455;54.302;10.124;2022-12-07T07:30:09;17.30;;;5.07;;
18651;SDS011;9455;54.302;10.124;2022-12-07T07:32:36;10.00;;;5.13;;
18651;SDS011;9455;54.302;10.124;2022-12-07T07:35:03;10.93;;;5.23;;
18651;SDS011;9455;54.302;10.124;2022-12-07T07:37:30;7.27;;;4.20;;
18651;SDS011;9455;54.302;10.124;2022-12-07T07:39:57;8.80;;;4.80;;
18651;SDS011;9455;54.302;10.124;2022-12-07T07:42:25;10.90;;;5.20;;
18651;SDS011;9455;54.302;10.124;2022-12-07T07:44:51;17.13;;;6.60;;
18651;SDS011;9455;54.302;10.124;2022-12-07T07:47:18;15.53;;;5.97;;
18651;SDS011;9455;54.302;10.124;2022-12-07T07:49:45;10.87;;;4.90;;
18651;SDS011;9455;54.302;10.124;2022-12-07T07:52:11;12.53;;;5.13;;
18651;SDS011;9455;54.302;10.124;2022-12-07T07:54:38;7.03;;;4.20;;
18651;SDS011;9455;54.302;10.124;2022-12-07T07:57:04;32.07;;;11.20;;
18651;SDS011;9455;54.302;10.124;2022-12-07T07:59:32;9.53;;;4.70;;
18651;SDS011;9455;54.302;10.124;2022-12-07T08:01:59;8.33;;;4.20;;
18651;SDS011;9455;54.302;10.124;2022-12-07T08:04:26;8.07;;;4.57;;
18651;SDS011;9455;54.302;10.124;2022-12-07T08:06:52;10.43;;;4.60;;
18651;SDS011;9455;54.302;10.124;2022-12-07T08:09:19;9.63;;;3.83;;
18651;SDS011;9455;54.302;10.124;2022-12-07T08:11:45;7.17;;;4.30;;
18651;SDS011;9455;54.302;10.124;2022-12-07T08:14:12;6.07;;;3.43;;
18651;SDS011;9455;54.302;10.124;2022-12-07T08:16:40;18.37;;;4.07;;
18651;SDS011;9455;54.302;10.124;2022-12-07T08:19:07;17.40;;;3.43;;
18651;SDS011;9455;54.302;10.124;2022-12-07T08:21:33;13.37;;;4.70;;
18651;SDS011;9455;54.302;10.124;2022-12-07T08:24:00;15.13;;;3.80;;
18651;SDS011;9455;54.302;10.124;2022-12-07T08:26:26;8.47;;;3.40;;
18651;SDS011;9455;54.302;10.124;2022-12-07T08:28:53;13.63;;;3.73;;
18651;SDS011;9455;54.302;10.124;2022-12-07T08:31:20;8.50;;;4.50;;
18651;SDS011;9455;54.302;10.124;2022-12-07T08:33:48;8.93;;;3.03;;
18651;SDS011;9455;54.302;10.124;2022-12-07T08:36:15;9.13;;;3.80;;
18651;SDS011;9455;54.302;10.124;2022-12-07T08:38:42;9.67;;;3.53;;
18651;SDS011;9455;54.302;10.124;2022-12-07T08:41:09;10.83;;;3.43;;
18651;SDS011;9455;54.302;10.124;2022-12-07T08:43:35;12.60;;;4.30;;
18651;SDS011;9455;54.302;10.124;2022-12-07T08:46:05;8.97;;;3.53;;
18651;SDS011;9455;54.302;10.124;2022-12-07T08:48:34;7.03;;;3.00;;
18651;SDS011;9455;54.302;10.124;2022-12-07T08:51:05;11.20;;;3.13;;
18651;SDS011;9455;54.302;10.124;2022-12-07T08:53:32;10.23;;;3.70;;
18651;SDS011;9455;54.302;10.124;2022-12-07T08:56:00;9.97;;;3.83;;
18651;SDS011;9455;54.302;10.124;2022-12-07T08:58:27;11.23;;;3.63;;
18651;SDS011;9455;54.302;10.124;2022-12-07T09:00:53;15.83;;;3.83;;
18651;SDS011;9455;54.302;10.124;2022-12-07T09:03:20;10.20;;;4.07;;
18651;SDS011;9455;54.302;10.124;2022-12-07T09:05:46;7.00;;;3.30;;
18651;SDS011;9455;54.302;10.124;2022-12-07T09:08:15;27.20;;;8.70;;
18651;SDS011;9455;54.302;10.124;2022-12-07T09:10:42;11.23;;;4.00;;
18651;SDS011;9455;54.302;10.124;2022-12-07T09:13:08;10.70;;;4.30;;
18651;SDS011;9455;54.302;10.124;2022-12-07T09:15:35;5.83;;;2.37;;
18651;SDS011;9455;54.302;10.124;2022-12-07T09:18:02;4.63;;;3.13;;
18651;SDS011;9455;54.302;10.124;2022-12-07T09:20:29;7.87;;;2.30;;
18651;SDS011;9455;54.302;10.124;2022-12-07T09:22:55;5.13;;;1.97;;
18651;SDS011;9455;54.302;10.124;2022-12-07T09:25:23;4.00;;;2.07;;
18651;SDS011;9455;54.302;10.124;2022-12-07T09:27:54;5.93;;;3.60;;
18651;SDS011;9455;54.302;10.124;2022-12-07T09:30:22;10.10;;;3.97;;
18651;SDS011;9455;54.302;10.124;2022-12-07T09:32:48;4.50;;;1.87;;
18651;SDS011;9455;54.302;10.124;2022-12-07T09:35:15;3.27;;;1.67;;
18651;SDS011;9455;54.302;10.124;2022-12-07T09:37:42;6.50;;;1.73;;
18651;SDS011;9455;54.302;10.124;2022-12-07T09:40:08;2.07;;;1.87;;
18651;SDS011;9455;54.302;10.124;2022-12-07T09:42:38;2.80;;;1.47;;
18651;SDS011;9455;54.302;10.124;2022-12-07T09:45:06;4.50;;;2.17;;
18651;SDS011;9455;54.302;10.124;2022-12-07T09:47:38;5.03;;;1.60;;
18651;SDS011;9455;54.302;10.124;2022-12-07T09:50:06;2.13;;;1.47;;
18651;SDS011;9455;54.302;10.124;2022-12-07T09:52:39;6.53;;;1.60;;
18651;SDS011;9455;54.302;10.124;2022-12-07T09:55:09;4.20;;;1.27;;
18651;SDS011;9455;54.302;10.124;2022-12-07T09:57:39;6.10;;;1.10;;
18651;SDS011;9455;54.302;10.124;2022-12-07T10:00:09;1.33;;;1.00;;
18651;SDS011;9455;54.302;10.124;2022-12-07T10:02:40;13.27;;;1.20;;
18651;SDS011;9455;54.302;10.124;2022-12-07T10:05:10;7.23;;;1.80;;
18651;SDS011;9455;54.302;10.124;2022-12-07T10:07:40;3.90;;;1.37;;
18651;SDS011;9455;54.302;10.124;2022-12-07T10:10:09;5.60;;;1.80;;
18651;SDS011;9455;54.302;10.124;2022-12-07T10:12:53;6.57;;;1.80;;
18651;SDS011;9455;54.302;10.124;2022-12-07T10:15:23;5.97;;;1.07;;
18651;SDS011;9455;54.302;10.124;2022-12-07T10:18:16;4.70;;;0.93;;
18651;SDS011;9455;54.302;10.124;2022-12-07T10:20:45;1.97;;;1.00;;
18651;SDS011;9455;54.302;10.124;2022-12-07T10:23:14;6.03;;;1.77;;
18651;SDS011;9455;54.302;10.124;2022-12-07T10:25:41;28.53;;;3.07;;
18651;SDS011;9455;54.302;10.124;2022-12-07T10:28:16;10.50;;;1.90;;
18651;SDS011;9455;54.302;10.124;2022-12-07T10:30:48;7.17;;;1.93;;
18651;SDS011;9455;54.302;10.124;2022-12-07T10:33:27;4.43;;;1.50;;
18651;SDS011;9455;54.302;10.124;2022-12-07T10:35:58;6.97;;;1.73;;
18651;SDS011;9455;54.302;10.124;2022-12-07T10:38:25;3.00;;;1.33;;
18651;SDS011;9455;54.302;10.124;2022-12-07T10:41:02;4.27;;;1.40;;
18651;SDS011;9455;54.302;10.124;2022-12-07T10:43:32;3.00;;;1.00;;
18651;SDS011;9455;54.302;10.124;2022-12-07T10:46:07;3.30;;;1.13;;
18651;SDS011;9455;54.302;10.124;2022-12-07T10:48:50;2.57;;;1.20;;
18651;SDS011;9455;54.302;10.124;2022-12-07T10:51:26;6.40;;;1.10;;
18651;SDS011;9455;54.302;10.124;2022-12-07T10:54:04;4.83;;;1.73;;
18651;SDS011;9455;54.302;10.124;2022-12-07T10:56:46;4.43;;;0.90;;
18651;SDS011;9455;54.302;10.124;2022-12-07T10:59:32;7.20;;;1.40;;
18651;SDS011;9455;54.302;10.124;2022-12-07T11:02:25;2.30;;;1.23;;
18651;SDS011;9455;54.302;10.124;2022-12-07T11:05:06;4.70;;;1.23;;
18651;SDS011;9455;54.302;10.124;2022-12-07T11:07:46;5.50;;;1.20;;
18651;SDS011;9455;54.302;10.124;2022-12-07T11:10:22;3.33;;;0.83;;
18651;SDS011;9455;54.302;10.124;2022-12-07T11:12:59;4.33;;;1.17;;
18651;SDS011;9455;54.302;10.124;2022-12-07T11:15:50;5.27;;;1.53;;
18651;SDS011;9455;54.302;10.124;2022-12-07T11:18:37;8.43;;;1.63;;
18651;SDS011;9455;54.302;10.124;2022-12-07T11:21:13;1.73;;;1.00;;
18651;SDS011;9455;54.302;10.124;2022-12-07T11:23:48;4.00;;;1.10;;
18651;SDS011;9455;54.302;10.124;2022-12-07T11:26:21;4.63;;;1.30;;
18651;SDS011;9455;54.302;10.124;2022-12-07T11:29:02;1.77;;;1.00;;
18651;SDS011;9455;54.302;10.124;2022-12-07T11:31:49;3.03;;;0.80;;
18651;SDS011;9455;54.302;10.124;2022-12-07T11:34:25;4.67;;;1.40;;
18651;SDS011;9455;54.302;10.124;2022-12-07T11:37:03;1.30;;;0.97;;
18651;SDS011;9455;54.302;10.124;2022-12-07T11:39:39;5.63;;;0.83;;
18651;SDS011;9455;54.302;10.124;2022-12-07T11:42:12;3.40;;;0.83;;
18651;SDS011;9455;54.302;10.124;2022-12-07T11:44:45;1.07;;;0.80;;
18651;SDS011;9455;54.302;10.124;2022-12-07T11:47:20;0.90;;;0.90;;
18651;SDS011;9455;54.302;10.124;2022-12-07T11:49:54;3.73;;;1.30;;
18651;SDS011;9455;54.302;10.124;2022-12-07T11:52:25;3.10;;;0.90;;
18651;SDS011;9455;54.302;10.124;2022-12-07T11:54:56;1.83;;;1.00;;
18651;SDS011;9455;54.302;10.124;2022-12-07T11:57:28;1.70;;;1.00;;
18651;SDS011;9455;54.302;10.124;2022-12-07T12:00:03;3.37;;;1.10;;
18651;SDS011;9455;54.302;10.124;2022-12-07T12:02:34;3.33;;;0.77;;
18651;SDS011;9455;54.302;10.124;2022-12-07T12:05:12;3.13;;;0.70;;
18651;SDS011;9455;54.302;10.124;2022-12-07T12:07:42;1.53;;;0.73;;
18651;SDS011;9455;54.302;10.124;2022-12-07T12:10:14;1.90;;;1.00;;
18651;SDS011;9455;54.302;10.124;2022-12-07T12:12:50;0.60;;;0.60;;
18651;SDS011;9455;54.302;10.124;2022-12-07T12:15:48;2.93;;;0.90;;
18651;SDS011;9455;54.302;10.124;2022-12-07T12:18:36;5.03;;;1.00;;
18651;SDS011;9455;54.302;10.124;2022-12-07T12:21:18;0.60;;;0.60;;
18651;SDS011;9455;54.302;10.124;2022-12-07T12:23:50;2.63;;;1.10;;
18651;SDS011;9455;54.302;10.124;2022-12-07T12:26:23;4.90;;;1.23;;
18651;SDS011;9455;54.302;10.124;2022-12-07T12:28:52;3.70;;;0.60;;
18651;SDS011;9455;54.302;10.124;2022-12-07T12:31:37;1.80;;;0.63;;
18651;SDS011;9455;54.302;10.124;2022-12-07T12:36:58;0.60;;;0.60;;
18651;SDS011;9455;54.302;10.124;2022-12-07T12:39:25;3.93;;;0.70;;
18651;SDS011;9455;54.302;10.124;2022-12-07T12:41:56;1.10;;;0.63;;
18651;SDS011;9455;54.302;10.124;2022-12-07T12:47:41;2.73;;;0.90;;
18651;SDS011;9455;54.302;10.124;2022-12-07T12:50:20;69.53;;;19.17;;
18651;SDS011;9455;54.302;10.124;2022-12-07T12:52:50;1.00;;;1.00;;
18651;SDS011;9455;54.302;10.124;2022-12-07T12:58:39;2.83;;;0.70;;
18651;SDS011;9455;54.302;10.124;2022-12-07T13:07:13;1.33;;;1.20;;
18651;SDS011;9455;54.302;10.124;2022-12-07T13:10:20;6.30;;;1.03;;
18651;SDS011;9455;54.302;10.124;2022-12-07T13:12:56;0.73;;;0.73;;
18651;SDS011;9455;54.302;10.124;2022-12-07T13:15:36;3.17;;;0.77;;
18651;SDS011;9455;54.302;10.124;2022-12-07T13:18:21;6.30;;;1.23;;
18651;SDS011;9455;54.302;10.124;2022-12-07T13:20:51;5.73;;;0.80;;
18651;SDS011;9455;54.302;10.124;2022-12-07T13:23:21;1.30;;;0.87;;
18651;SDS011;9455;54.302;10.124;2022-12-07T13:28:49;1.03;;;0.77;;
18651;SDS011;9455;54.302;10.124;2022-12-07T13:31:30;3.13;;;1.00;;
18651;SDS011;9455;54.302;10.124;2022-12-07T13:33:59;2.30;;;1.13;;
18651;SDS011;9455;54.302;10.124;2022-12-07T13:36:28;0.73;;;0.70;;
18651;SDS011;9455;54.302;10.124;2022-12-07T13:39:10;7.23;;;1.10;;
18651;SDS011;9455;54.302;10.124;2022-12-07T13:41:42;0.93;;;0.83;;
18651;SDS011;9455;54.302;10.124;2022-12-07T13:44:10;3.97;;;0.90;;
18651;SDS011;9455;54.302;10.124;2022-12-07T13:46:44;1.83;;;0.90;;
18651;SDS011;9455;54.302;10.124;2022-12-07T13:49:17;4.60;;;1.03;;
18651;SDS011;9455;54.302;10.124;2022-12-07T13:51:46;0.80;;;0.80;;
18651;SDS011;9455;54.302;10.124;2022-12-07T13:54:14;0.90;;;0.80;;
18651;SDS011;9455;54.302;10.124;2022-12-07T13:56:42;1.67;;;1.47;;
18651;SDS011;9455;54.302;10.124;2022-12-07T13:59:12;1.27;;;0.90;;
18651;SDS011;9455;54.302;10.124;2022-12-07T14:01:41;3.40;;;0.80;;
18651;SDS011;9455;54.302;10.124;2022-12-07T14:04:17;1.83;;;1.10;;
18651;SDS011;9455;54.302;10.124;2022-12-07T14:07:20;4.07;;;0.77;;
18651;SDS011;9455;54.302;10.124;2022-12-07T14:09:58;2.43;;;1.00;;
18651;SDS011;9455;54.302;10.124;2022-12-07T14:12:27;1.17;;;1.10;;
18651;SDS011;9455;54.302;10.124;2022-12-07T14:14:55;1.40;;;1.17;;
18651;SDS011;9455;54.302;10.124;2022-12-07T14:17:23;1.90;;;1.33;;
18651;SDS011;9455;54.302;10.124;2022-12-07T14:19:51;1.90;;;0.83;;
18651;SDS011;9455;54.302;10.124;2022-12-07T14:22:22;3.03;;;1.20;;
18651;SDS011;9455;54.302;10.124;2022-12-07T14:24:57;0.87;;;0.87;;
18651;SDS011;9455;54.302;10.124;2022-12-07T14:27:30;1.53;;;1.20;;
18651;SDS011;9455;54.302;10.124;2022-12-07T14:29:59;1.00;;;1.00;;
18651;SDS011;9455;54.302;10.124;2022-12-07T14:32:27;4.40;;;1.00;;
18651;SDS011;9455;54.302;10.124;2022-12-07T14:34:55;4.70;;;1.07;;
18651;SDS011;9455;54.302;10.124;2022-12-07T14:37:23;4.83;;;1.43;;
18651;SDS011;9455;54.302;10.124;2022-12-07T14:39:51;1.57;;;0.90;;
18651;SDS011;9455;54.302;10.124;2022-12-07T14:42:19;1.17;;;1.13;;
18651;SDS011;9455;54.302;10.124;2022-12-07T14:44:46;3.37;;;1.57;;
18651;SDS011;9455;54.302;10.124;2022-12-07T14:47:13;1.03;;;1.03;;
18651;SDS011;9455;54.302;10.124;2022-12-07T14:49:39;1.20;;;1.20;;
18651;SDS011;9455;54.302;10.124;2022-12-07T14:52:06;9.03;;;1.40;;
18651;SDS011;9455;54.302;10.124;2022-12-07T14:54:38;0.87;;;0.87;;
18651;SDS011;9455;54.302;10.124;2022-12-07T14:57:06;1.37;;;1.20;;
18651;SDS011;9455;54.302;10.124;2022-12-07T14:59:35;1.00;;;1.00;;
18651;SDS011;9455;54.302;10.124;2022-12-07T15:02:02;5.40;;;2.60;;
18651;SDS011;9455;54.302;10.124;2022-12-07T15:04:29;1.27;;;1.17;;
18651;SDS011;9455;54.302;10.124;2022-12-07T15:06:56;1.93;;;1.17;;
18651;SDS011;9455;54.302;10.124;2022-12-07T15:09:23;2.40;;;1.40;;
18651;SDS011;9455;54.302;10.124;2022-12-07T15:11:49;1.23;;;1.10;;
18651;SDS011;9455;54.302;10.124;2022-12-07T15:14:16;2.20;;;1.50;;
18651;SDS011;9455;54.302;10.124;2022-12-07T15:16:44;1.57;;;1.00;;
18651;SDS011;9455;54.302;10.124;2022-12-07T15:19:12;4.67;;;1.20;;